Medicine Lake, Minnesota
Current Conditions -  °F | °C
As of 8:53 AM on Friday 28 Nov 2014 (Local Time) from KMIC Reporting Station
Overcast Overcast  
Wind Chill:   Ceiling: 2200
Heat Index: 16°   Visibility: 10mi
Dew Point:   Wind: 5mph
Humidity: 74%   Direction: 130°SE
Pressure: 29.98"   Gusts: NA
Location:  45.0038°N, 93.4289°W
Report Text: KMIC 281453Z 13004KT 10SM OVC022 M09/M13 A2998 RMK AO2 SLP171 T10891128 56018
Loading
Personal Weather Stations






























Interactive Weather Map New forecast layout! Learn more

10-Day Weather Forecast

Advertisements
Track Severe Weather on mobile